NE25 weather

Orr Field
North Platte, Nebraska, United States

Public forecast

Using degrees Fahrenheit for public forecast. Weather courtesy of forecast.io.

Closest aviation weather report (METAR) to Orr Field

Closest report is North Platte Regional Airport Lee Bird Field, 8.6 nm (16.0 km) ESE. Retrieved 2019/10/18 22:53 UTC (19 minutes ago):

KLBF 182253Z AUTO 36010KT 10SM CLR 18/03 A2967 RMK AO2 PK WND 36026/2217 SLP041 T01780028

Closest aviation forecast (TAF) to Orr Field

Closest forecast is North Platte Regional Airport Lee Bird Field, 8.6 nm (16.0 km) ESE. Retrieved 2019/10/18 18:36 UTC (5 hours ago):

TAF KLBF 181735Z 1818/1918 32017G24KT P6SM SKC FM182000 34020G27KT P6SM FEW250 FM190000 33010KT P6SM BKN200 FM190400 32004KT P6SM SCT200 FM191200 29006KT P6SM BKN250